Aérodrome :
LOGIN :

S'inscrire | Disclaimer

   EN    FR    IT 

 










Légende :    VFR   VFR Marginal   IFR   IFR Intensif   IFR Très Intensif
Visi : 
Plafond : 
>= 8 km
>= 3000ft
5 à 8 km
1000 à 3000 ft
1500m à 5 km
500 à 1000 ft
800 à 1500m
200 à 500 ft
< 800m
< 200 ft
Symboles :   Orages  Brouillard  Fortes neiges  Fortes précipitations  Vent > 20 kt
SIGMETs :   Divers  Orages  Givrage  Turbulence  Onde Orograph.  Cendres Volcan.







- Altitude de l'aérodrome : 1411 ft
- Code IATA : GVA


LSGG - Genève Cointrin

DERNIER METAR :
  • 200920Z VRB03KT 9999 -SHRA FEW020 BKN036 BKN050 14/08 Q1008 NOSIG

METARs EXPIRÉS :
  • 200850Z 01003KT 340V040 9999 FEW020 BKN036 BKN050 14/09 Q1008 NOSIG
  • 200820Z VRB03KT 9999 FEW028 BKN036TCU BKN050 14/08 Q1008 NOSIG
  • 200750Z VRB02KT 9999 FEW028 BKN036TCU BKN050 14/09 Q1008 NOSIG
  • 200720Z VRB03KT 9999 VCSH FEW025 BKN036 BKN060 13/11 Q1008 NOSIG
  • 200650Z VRB02KT 9999 VCSH FEW015 BKN036 BKN060 12/11 Q1007 NOSIG
  • 200620Z VRB02KT 9999 VCSH FEW010 BKN036 BKN060 12/11 Q1007 NOSIG

TAF TAF LSGG
Valide du 20 à 09h jusqu'au 21 à 15h UTC


200825Z 2009/2115 22006KT 9999 FEW025 BKN040 TX16/2015Z TN10/2105Z TX19/2115Z
ATIS : +41 22 417 40 81
Pas de NOTAMs connus pour ce terrain.



MET'MAP, la Météo Aéronautique d'un coup d'oeil ! - Copyright ORBIFLY Décembre 2007 - Disclaimer

ORBIFLY MET'MAP TEAM :

Programmation & Développement : Alexandra Zaïnal
Conception & Développement : Baudouin d'Aumeries
Co-Programmation & Développement : Marc-Olivier Méhu
Soutien technique & logistique : Manuel Goepfert

Contact : metmap@orbifly.com




SOURCES & CREDITS :

   NOAA